createdAt,value
2019-04-07T00:02:28.417Z,88.27
2019-04-07T00:05:10.156Z,92.73
2019-04-07T00:07:30.771Z,92.63
2019-04-07T00:10:01.737Z,90.03
2019-04-07T00:12:32.135Z,92.97
2019-04-07T00:15:01.793Z,99.97
2019-04-07T00:17:32.294Z,106.30
2019-04-07T00:20:02.798Z,102.03
2019-04-07T00:22:33.563Z,102.62
2019-04-07T00:25:04.161Z,107.47
2019-04-07T00:27:34.493Z,104.70
2019-04-07T00:30:05.055Z,102.13
2019-04-07T00:32:35.395Z,101.13
2019-04-07T00:35:06.076Z,104.67
2019-04-07T00:37:36.454Z,106.13
2019-04-07T00:40:07.370Z,114.77
2019-04-07T00:42:38.103Z,108.00
2019-04-07T00:45:08.934Z,111.30
2019-04-07T00:47:39.316Z,103.03
2019-04-07T00:50:10.364Z,103.67
2019-04-07T00:52:40.671Z,115.23
2019-04-07T00:55:11.637Z,101.60
2019-04-07T00:57:41.968Z,109.03
2019-04-07T01:00:16.216Z,107.90
2019-04-07T01:02:46.502Z,111.17
2019-04-07T01:05:16.927Z,114.97
2019-04-07T01:07:47.239Z,101.83
2019-04-07T01:10:17.574Z,100.37
2019-04-07T01:12:47.852Z,106.87
2019-04-07T01:15:18.644Z,103.67
2019-04-07T01:17:49.013Z,111.97
2019-04-07T01:20:19.539Z,113.10
2019-04-07T01:22:50.146Z,111.67
2019-04-07T01:25:20.439Z,108.73
2019-04-07T01:27:51.228Z,102.07
2019-04-07T01:30:21.609Z,117.70
2019-04-07T01:32:52.155Z,110.77
2019-04-07T01:35:22.591Z,115.90
2019-04-07T01:37:52.941Z,119.60
2019-04-07T01:40:23.504Z,119.10
2019-04-07T01:43:22.689Z,119.03
2019-04-07T01:46:11.038Z,116.87
2019-04-07T01:48:56.594Z,114.63
2019-04-07T01:51:46.390Z,117.20
2019-04-07T01:54:41.949Z,123.60
2019-04-07T01:57:46.644Z,119.47
2019-04-07T02:00:23.826Z,120.43
2019-04-07T02:03:04.967Z,127.40
2019-04-07T02:06:12.168Z,131.13
2019-04-07T02:08:52.838Z,125.00
2019-04-07T02:11:48.323Z,124.87
2019-04-07T02:14:37.828Z,112.70
2019-04-07T02:17:16.169Z,116.40
2019-04-07T02:20:02.646Z,135.90
2019-04-07T02:22:54.807Z,121.10
2019-04-07T02:25:43.879Z,132.73
2019-04-07T02:28:39.200Z,138.83
2019-04-07T02:31:19.139Z,130.43
2019-04-07T02:34:00.532Z,143.70
2019-04-07T02:36:44.200Z,150.07
2019-04-07T02:39:34.462Z,142.03
2019-04-07T02:42:30.542Z,140.87
2019-04-07T02:45:21.856Z,159.60
2019-04-07T02:48:11.082Z,159.37
2019-04-07T02:50:54.946Z,163.43
2019-04-07T02:53:51.020Z,163.87
2019-04-07T02:56:42.276Z,157.20
2019-04-07T02:59:19.772Z,164.57
2019-04-07T03:01:59.289Z,178.63
2019-04-07T03:04:38.532Z,168.27
2019-04-07T03:07:27.723Z,169.67
2019-04-07T03:10:04.303Z,155.83
2019-04-07T03:12:55.730Z,156.90
2019-04-07T03:15:48.429Z,151.87
2019-04-07T03:18:50.600Z,165.83
2019-04-07T03:21:45.916Z,168.80
2019-04-07T03:24:26.682Z,161.87
2019-04-07T03:27:28.250Z,154.67
2019-04-07T03:30:14.341Z,151.23
2019-04-07T03:33:18.398Z,145.97
2019-04-07T03:36:03.929Z,146.87
2019-04-07T03:38:55.782Z,154.00
2019-04-07T03:41:53.801Z,178.47
2019-04-07T03:44:55.104Z,142.73
2019-04-07T03:47:30.135Z,164.80
2019-04-07T03:50:19.449Z,155.77
2019-04-07T03:53:06.101Z,160.00
2019-04-07T03:55:51.547Z,152.50
2019-04-07T03:58:41.444Z,155.27
2019-04-07T04:01:33.977Z,161.63
2019-04-07T04:04:10.960Z,170.13
2019-04-07T04:07:18.125Z,188.93
2019-04-07T04:09:56.117Z,177.95
2019-04-07T04:12:45.695Z,178.77
2019-04-07T04:15:28.619Z,194.47
2019-04-07T04:17:58.969Z,199.93
2019-04-07T04:20:30.202Z,198.70
2019-04-07T04:23:00.736Z,218.63
2019-04-07T04:25:32.043Z,202.93
2019-04-07T04:28:04.983Z,209.00
2019-04-07T04:30:36.021Z,237.13
2019-04-07T04:33:08.973Z,219.03
2019-04-07T04:35:40.963Z,227.97
2019-04-07T04:38:12.131Z,219.93
2019-04-07T04:40:42.769Z,222.90
2019-04-07T04:43:13.786Z,231.33
2019-04-07T04:45:44.888Z,237.43
2019-04-07T04:48:15.623Z,230.13
2019-04-07T04:50:47.051Z,232.83
2019-04-07T04:53:18.418Z,214.50
2019-04-07T04:55:49.014Z,235.77
2019-04-07T04:58:19.461Z,217.30
2019-04-07T05:00:50.754Z,220.53
2019-04-07T05:03:21.558Z,226.30
2019-04-07T05:05:52.405Z,250.00
2019-04-07T05:08:22.181Z,217.18
2019-04-07T05:10:52.411Z,241.27
2019-04-07T05:13:22.767Z,227.20
2019-04-07T05:15:53.680Z,243.63
2019-04-07T05:18:23.455Z,236.57
2019-04-07T05:20:54.257Z,210.77
2019-04-07T05:23:25.151Z,229.63
2019-04-07T05:25:55.720Z,219.47
2019-04-07T05:28:26.623Z,244.37
2019-04-07T05:30:57.005Z,261.53
2019-04-07T05:33:27.804Z,234.63
2019-04-07T05:35:58.323Z,247.63
2019-04-07T05:38:29.065Z,263.80
2019-04-07T05:40:59.556Z,247.00
2019-04-07T05:43:30.566Z,259.03
2019-04-07T05:46:00.885Z,259.60
2019-04-07T05:48:31.685Z,250.53
2019-04-07T05:51:02.342Z,269.33
2019-04-07T05:53:33.304Z,275.83
2019-04-07T05:56:04.334Z,253.17
2019-04-07T05:58:37.570Z,253.77
2019-04-07T06:01:06.601Z,284.97
2019-04-07T06:03:41.257Z,282.93
2019-04-07T06:06:09.385Z,278.77
2019-04-07T06:08:41.044Z,267.80
2019-04-07T06:11:11.485Z,279.10
2019-04-07T06:13:43.831Z,294.90
2019-04-07T06:16:14.062Z,276.60
2019-04-07T06:18:44.511Z,279.80
2019-04-07T06:21:16.154Z,282.07
2019-04-07T06:23:46.899Z,296.13
2019-04-07T06:26:17.498Z,269.03
2019-04-07T06:28:51.517Z,298.17
2019-04-07T06:31:21.026Z,299.03
2019-04-07T06:33:54.844Z,293.07
2019-04-07T06:36:26.590Z,307.30
2019-04-07T06:38:56.435Z,287.83
2019-04-07T06:41:30.139Z,281.90
2019-04-07T06:44:08.906Z,267.93
2019-04-07T06:46:38.058Z,278.07
2019-04-07T06:49:29.960Z,264.93
2019-04-07T06:52:21.382Z,239.43
2019-04-07T06:55:10.646Z,244.83
2019-04-07T06:57:52.634Z,222.30
2019-04-07T07:00:40.849Z,208.53
2019-04-07T07:03:29.150Z,217.20
2019-04-07T07:06:11.097Z,205.03
2019-04-07T07:08:58.338Z,188.23
2019-04-07T07:11:42.826Z,184.30
2019-04-07T07:14:43.290Z,161.53
2019-04-07T07:17:25.685Z,142.23
2019-04-07T07:20:04.398Z,140.13
2019-04-07T07:22:47.901Z,133.97
2019-04-07T07:25:18.127Z,117.20
2019-04-07T07:27:47.895Z,113.43
2019-04-07T07:30:19.596Z,106.87
2019-04-07T07:32:50.730Z,103.15
2019-04-07T07:35:21.012Z,106.53
2019-04-07T07:37:51.333Z,98.23
2019-04-07T07:40:22.166Z,95.67
2019-04-07T07:42:55.462Z,103.83
2019-04-07T07:45:25.023Z,100.72
2019-04-07T07:47:55.318Z,96.63
2019-04-07T07:50:25.666Z,84.42
2019-04-07T07:52:56.171Z,90.38
2019-04-07T07:55:27.346Z,86.32
2019-04-07T07:57:59.141Z,88.77
2019-04-07T08:00:28.374Z,92.30
2019-04-07T08:02:59.193Z,88.93
2019-04-07T08:05:32.282Z,81.77
2019-04-07T08:08:00.616Z,78.63
2019-04-07T08:10:30.265Z,79.40
2019-04-07T08:13:00.643Z,84.83
2019-04-07T08:15:33.341Z,81.23
2019-04-07T08:18:07.045Z,81.73
2019-04-07T08:20:35.248Z,81.20
2019-04-07T08:23:05.359Z,81.37
2019-04-07T08:25:35.793Z,78.73
2019-04-07T08:28:06.246Z,83.17
2019-04-07T08:30:36.105Z,80.63
2019-04-07T08:33:07.190Z,83.07
2019-04-07T08:35:39.580Z,86.00
2019-04-07T08:38:09.784Z,81.73
2019-04-07T08:40:40.366Z,82.13
2019-04-07T08:43:11.477Z,82.10
2019-04-07T08:45:42.436Z,82.20
2019-04-07T08:48:12.251Z,84.10
2019-04-07T08:50:42.483Z,87.80
2019-04-07T08:53:13.783Z,84.77
2019-04-07T08:55:44.486Z,80.87
2019-04-07T08:58:25.217Z,85.70
2019-04-07T09:00:52.018Z,76.33
2019-04-07T09:03:21.966Z,79.63
2019-04-07T09:05:54.340Z,78.50
2019-04-07T09:08:24.173Z,80.83
2019-04-07T09:11:07.869Z,72.87
2019-04-07T09:13:37.469Z,78.90
2019-04-07T09:16:30.263Z,83.13
2019-04-07T09:19:28.822Z,79.60
2019-04-07T09:22:20.205Z,80.63
2019-04-07T09:25:09.593Z,83.53
2019-04-07T09:27:50.869Z,80.63
2019-04-07T09:30:43.379Z,79.77
2019-04-07T09:33:48.926Z,69.47
2019-04-07T09:36:32.346Z,82.87
2019-04-07T09:39:54.072Z,75.47
2019-04-07T09:42:22.400Z,74.50
2019-04-07T09:45:22.847Z,70.60
2019-04-07T09:48:07.674Z,77.30
2019-04-07T09:50:55.509Z,82.60
2019-04-07T09:53:57.520Z,84.33
2019-04-07T09:56:56.199Z,83.30
2019-04-07T09:59:46.672Z,75.63
2019-04-07T10:02:54.853Z,71.07
2019-04-07T10:05:54.006Z,68.43
2019-04-07T10:08:58.879Z,79.70
2019-04-07T10:11:48.803Z,75.13
2019-04-07T10:14:37.672Z,73.13
2019-04-07T10:17:19.875Z,81.10
2019-04-07T10:20:12.380Z,71.63
2019-04-07T10:23:05.201Z,81.93
2019-04-07T10:26:04.106Z,82.43
2019-04-07T10:28:53.216Z,76.93
2019-04-07T10:31:42.474Z,76.17
2019-04-07T10:34:34.911Z,72.67
2019-04-07T10:37:16.863Z,80.67
2019-04-07T10:40:03.078Z,82.30
2019-04-07T10:42:51.511Z,86.83
2019-04-07T10:45:49.380Z,87.13
2019-04-07T10:48:44.516Z,83.03
2019-04-07T10:51:45.961Z,89.77
2019-04-07T10:54:25.204Z,84.70
2019-04-07T10:57:05.383Z,88.40
2019-04-07T10:59:47.479Z,91.90
2019-04-07T11:02:42.704Z,88.27
2019-04-07T11:05:31.459Z,85.77
2019-04-07T11:08:20.211Z,89.53
2019-04-07T11:11:15.366Z,88.80
2019-04-07T11:14:04.724Z,81.50
2019-04-07T11:17:08.563Z,80.62
2019-04-07T11:20:06.267Z,81.63
2019-04-07T11:23:10.771Z,79.70
2019-04-07T11:26:03.534Z,79.43
2019-04-07T11:28:59.383Z,79.17
2019-04-07T11:31:44.065Z,78.70
2019-04-07T11:34:31.286Z,81.47
2019-04-07T11:37:20.428Z,76.07
2019-04-07T11:39:59.061Z,81.83
2019-04-07T11:42:40.444Z,84.10
2019-04-07T11:45:33.375Z,84.80
2019-04-07T11:48:29.401Z,90.60
2019-04-07T11:51:15.156Z,84.93
2019-04-07T11:53:59.899Z,88.90
2019-04-07T11:56:55.621Z,87.67
2019-04-07T11:59:41.388Z,85.03
2019-04-07T12:02:36.652Z,93.87
2019-04-07T12:05:23.445Z,93.20
2019-04-07T12:08:32.279Z,91.70
2019-04-07T12:11:25.020Z,90.20
2019-04-07T12:14:16.154Z,87.57
2019-04-07T12:16:52.417Z,94.47
2019-04-07T12:19:44.355Z,95.07
2019-04-07T12:22:44.073Z,86.23
2019-04-07T12:25:34.597Z,91.43
2019-04-07T12:28:20.590Z,84.33
2019-04-07T12:31:16.377Z,85.37
2019-04-07T12:34:12.087Z,84.80
2019-04-07T12:37:07.910Z,88.70
2019-04-07T12:40:02.718Z,86.47
2019-04-07T12:43:12.429Z,83.50
2019-04-07T12:45:46.815Z,77.13
2019-04-07T12:48:33.086Z,76.37
2019-04-07T12:51:12.469Z,77.50
2019-04-07T12:54:07.349Z,73.00
2019-04-07T12:56:54.745Z,75.17
2019-04-07T12:59:53.988Z,72.23
2019-04-07T13:02:54.381Z,70.50
2019-04-07T13:05:35.932Z,69.00
2019-04-07T13:08:32.302Z,69.87
2019-04-07T13:11:15.842Z,72.30
2019-04-07T13:13:52.901Z,73.53
2019-04-07T13:16:34.825Z,68.33
2019-04-07T13:19:24.280Z,74.27
2019-04-07T13:22:16.342Z,67.37
2019-04-07T13:25:11.767Z,67.17
2019-04-07T13:27:52.062Z,70.93
2019-04-07T13:30:56.326Z,73.47
2019-04-07T13:33:37.980Z,70.93
2019-04-07T13:36:18.473Z,68.73
2019-04-07T13:39:06.664Z,70.50
2019-04-07T13:41:56.525Z,77.23
2019-04-07T13:44:36.744Z,74.83
2019-04-07T13:47:24.151Z,82.33
2019-04-07T13:50:16.469Z,72.93
2019-04-07T13:53:18.128Z,81.07
2019-04-07T13:56:06.156Z,77.37
2019-04-07T13:59:00.986Z,74.60
2019-04-07T14:01:43.994Z,72.30
2019-04-07T14:04:32.953Z,78.73
2019-04-07T14:07:12.126Z,77.57
2019-04-07T14:10:15.999Z,72.30
2019-04-07T14:13:23.199Z,76.33
2019-04-07T14:16:24.706Z,77.73
2019-04-07T14:19:16.707Z,74.93
2019-04-07T14:22:04.396Z,76.70
2019-04-07T14:24:52.624Z,77.77
2019-04-07T14:27:42.653Z,73.20
2019-04-07T14:30:31.075Z,79.03
2019-04-07T14:33:19.871Z,75.57
2019-04-07T14:36:16.093Z,75.33
2019-04-07T14:38:59.530Z,70.87
2019-04-07T14:42:02.617Z,72.37
2019-04-07T14:44:38.768Z,82.47
2019-04-07T14:47:28.347Z,87.83
2019-04-07T14:50:06.920Z,82.97
2019-04-07T14:52:55.024Z,93.37
2019-04-07T14:55:43.208Z,85.50
2019-04-07T14:58:29.139Z,84.67
2019-04-07T15:01:30.853Z,83.80
2019-04-07T15:04:02.169Z,80.37
2019-04-07T15:06:34.678Z,72.85
2019-04-07T15:09:14.364Z,77.30
2019-04-07T15:11:55.582Z,71.50
2019-04-07T15:14:25.354Z,74.27
2019-04-07T15:16:56.343Z,75.30
2019-04-07T15:19:29.876Z,75.83
2019-04-07T15:22:02.298Z,79.05
2019-04-07T15:24:35.322Z,77.47
2019-04-07T15:27:05.908Z,81.23
2019-04-07T15:29:39.439Z,89.60
2019-04-07T15:32:07.346Z,84.87
2019-04-07T15:34:39.576Z,89.33
2019-04-07T15:37:09.936Z,88.03
2019-04-07T15:39:40.300Z,84.30
2019-04-07T15:42:11.483Z,87.23
2019-04-07T15:44:43.690Z,87.57
2019-04-07T15:47:14.906Z,85.77
2019-04-07T15:49:45.426Z,71.83
2019-04-07T15:52:15.297Z,80.67
2019-04-07T15:54:45.758Z,77.43
2019-04-07T15:57:20.201Z,85.70
2019-04-07T15:59:48.101Z,79.53
2019-04-07T16:02:19.211Z,79.47
2019-04-07T16:04:49.594Z,79.27
2019-04-07T16:07:20.183Z,74.40
2019-04-07T16:09:56.342Z,75.37
2019-04-07T16:12:24.093Z,80.97
2019-04-07T16:14:54.683Z,85.97
2019-04-07T16:17:25.271Z,78.93
2019-04-07T16:19:55.850Z,80.10
2019-04-07T16:22:25.770Z,83.77
2019-04-07T16:24:56.962Z,76.50
2019-04-07T16:27:28.262Z,79.43
2019-04-07T16:29:58.662Z,88.30
2019-04-07T16:32:29.875Z,80.87
2019-04-07T16:35:01.736Z,86.53
2019-04-07T16:37:32.188Z,80.60
2019-04-07T16:40:07.098Z,80.63
2019-04-07T16:42:34.608Z,85.22
2019-04-07T16:45:06.067Z,86.23
2019-04-07T16:47:37.152Z,88.73
2019-04-07T16:50:08.651Z,89.80
2019-04-07T16:52:39.812Z,86.87
2019-04-07T16:55:37.214Z,92.87
2019-04-07T16:58:07.354Z,93.17
2019-04-07T17:00:38.225Z,96.87
2019-04-07T17:03:08.658Z,94.87
2019-04-07T17:05:39.651Z,95.37
2019-04-07T17:08:09.407Z,99.53
2019-04-07T17:10:39.221Z,92.60
2019-04-07T17:13:17.843Z,94.80
2019-04-07T17:15:41.849Z,91.37
2019-04-07T17:18:38.757Z,102.60
2019-04-07T17:21:11.699Z,96.42
2019-04-07T17:23:41.521Z,101.73
2019-04-07T17:26:12.334Z,90.10
2019-04-07T17:28:44.636Z,97.67
2019-04-07T17:31:14.297Z,102.47
2019-04-07T17:33:45.575Z,100.13
2019-04-07T17:36:18.963Z,95.40
2019-04-07T17:39:05.275Z,103.93
2019-04-07T17:41:33.911Z,92.40
2019-04-07T17:44:23.398Z,100.37
2019-04-07T17:47:31.560Z,99.90
2019-04-07T17:50:20.391Z,99.47
2019-04-07T17:53:01.534Z,94.77
2019-04-07T17:56:05.507Z,94.37
2019-04-07T17:58:58.665Z,93.87
2019-04-07T18:01:35.749Z,96.83
2019-04-07T18:04:27.279Z,107.87
2019-04-07T18:07:13.067Z,110.00
2019-04-07T18:09:57.298Z,106.03
2019-04-07T18:13:04.119Z,107.20
2019-04-07T18:15:59.808Z,105.53
2019-04-07T18:18:47.660Z,117.23
2019-04-07T18:21:35.488Z,118.93
2019-04-07T18:24:22.725Z,114.47
2019-04-07T18:27:19.484Z,119.93
2019-04-07T18:30:08.448Z,125.07
2019-04-07T18:32:55.744Z,129.57
2019-04-07T18:35:43.636Z,128.30
2019-04-07T18:38:25.538Z,128.67
2019-04-07T18:41:30.782Z,146.67
2019-04-07T18:44:15.531Z,145.17
2019-04-07T18:47:03.351Z,132.10
2019-04-07T18:49:57.028Z,137.47
2019-04-07T18:53:01.653Z,136.52
2019-04-07T18:55:49.193Z,145.47
2019-04-07T18:58:31.013Z,147.80
2019-04-07T19:01:22.260Z,159.07
2019-04-07T19:04:02.473Z,146.57
2019-04-07T19:06:48.917Z,145.62
2019-04-07T19:09:48.171Z,152.57
2019-04-07T19:12:41.065Z,168.17
2019-04-07T19:15:28.136Z,163.90
2019-04-07T19:18:35.297Z,146.77
2019-04-07T19:21:24.747Z,159.77
2019-04-07T19:24:13.001Z,160.57
2019-04-07T19:27:11.580Z,153.20
2019-04-07T19:29:48.866Z,149.93
2019-04-07T19:32:31.375Z,155.13
2019-04-07T19:35:23.156Z,156.13
2019-04-07T19:38:12.148Z,150.97
2019-04-07T19:41:00.179Z,156.50
2019-04-07T19:43:58.471Z,143.03
2019-04-07T19:46:46.132Z,149.93
2019-04-07T19:49:33.239Z,156.67
2019-04-07T19:52:25.516Z,152.67
2019-04-07T19:55:10.318Z,150.83
2019-04-07T19:58:08.227Z,150.97
2019-04-07T20:01:15.525Z,152.53
2019-04-07T20:04:10.236Z,155.33
2019-04-07T20:06:59.573Z,148.83
2019-04-07T20:09:54.674Z,144.70
2019-04-07T20:12:34.619Z,162.60
2019-04-07T20:15:22.095Z,155.13
2019-04-07T20:18:14.627Z,155.97
2019-04-07T20:21:04.969Z,152.57
2019-04-07T20:23:47.653Z,154.35
2019-04-07T20:26:36.972Z,156.78
2019-04-07T20:29:21.103Z,148.43
2019-04-07T20:32:13.242Z,153.63
2019-04-07T20:34:56.970Z,161.00
2019-04-07T20:37:44.496Z,155.07
2019-04-07T20:40:28.182Z,149.03
2019-04-07T20:43:06.627Z,164.73
2019-04-07T20:46:04.546Z,159.95
2019-04-07T20:49:08.250Z,154.55
2019-04-07T20:52:06.018Z,157.15
2019-04-07T20:54:58.080Z,151.83
2019-04-07T20:57:46.219Z,173.65
2019-04-07T21:00:37.287Z,149.43
2019-04-07T21:03:31.800Z,158.67
2019-04-07T21:06:18.772Z,159.40
2019-04-07T21:09:09.976Z,163.17
2019-04-07T21:12:02.955Z,160.70
2019-04-07T21:15:04.531Z,164.72
2019-04-07T21:17:58.945Z,162.70
2019-04-07T21:20:42.270Z,152.70
2019-04-07T21:23:25.282Z,156.07
2019-04-07T21:26:27.758Z,159.90
2019-04-07T21:29:10.938Z,159.50
2019-04-07T21:32:02.354Z,152.90
2019-04-07T21:34:51.523Z,158.73
2019-04-07T21:37:40.940Z,149.53
2019-04-07T21:40:39.598Z,153.60
2019-04-07T21:43:18.010Z,158.90
2019-04-07T21:46:22.187Z,147.70
2019-04-07T21:49:19.436Z,147.97
2019-04-07T21:52:20.943Z,141.43
2019-04-07T21:55:14.851Z,139.47
2019-04-07T21:58:07.203Z,132.13
2019-04-07T22:01:14.811Z,132.10
2019-04-07T22:04:03.682Z,133.67
2019-04-07T22:06:48.786Z,125.78
2019-04-07T22:09:23.229Z,138.03
2019-04-07T22:11:54.671Z,140.43
2019-04-07T22:14:26.337Z,131.70
2019-04-07T22:16:56.909Z,133.53
2019-04-07T22:19:27.530Z,144.80
2019-04-07T22:21:58.298Z,147.07
2019-04-07T22:24:31.278Z,142.27
2019-04-07T22:27:01.433Z,149.20
2019-04-07T22:29:34.594Z,143.77
2019-04-07T22:32:05.335Z,138.93
2019-04-07T22:34:35.734Z,142.28
2019-04-07T22:37:06.792Z,138.93
2019-04-07T22:39:37.500Z,151.10
2019-04-07T22:42:08.549Z,148.50
2019-04-07T22:44:39.700Z,136.80
2019-04-07T22:47:12.096Z,132.63
2019-04-07T22:49:41.609Z,145.77
2019-04-07T22:52:11.775Z,138.07
2019-04-07T22:54:42.240Z,134.80
2019-04-07T22:57:15.104Z,136.50
2019-04-07T22:59:43.242Z,137.77
2019-04-07T23:02:13.743Z,125.70
2019-04-07T23:04:44.779Z,140.80
2019-04-07T23:07:15.916Z,147.53
2019-04-07T23:09:47.483Z,133.00
2019-04-07T23:12:17.857Z,132.53
2019-04-07T23:14:48.199Z,131.97
2019-04-07T23:17:18.527Z,139.37
2019-04-07T23:19:48.875Z,135.47
2019-04-07T23:22:20.046Z,120.50
2019-04-07T23:24:50.902Z,119.33
2019-04-07T23:27:20.833Z,124.40
2019-04-07T23:29:50.763Z,122.63
2019-04-07T23:32:21.236Z,118.10
2019-04-07T23:34:52.031Z,118.70
2019-04-07T23:37:22.113Z,117.50
2019-04-07T23:39:52.379Z,109.63
2019-04-07T23:42:22.157Z,109.53
2019-04-07T23:44:53.145Z,121.57
2019-04-07T23:47:23.661Z,121.27
2019-04-07T23:49:54.445Z,127.80
2019-04-07T23:52:25.122Z,114.87
2019-04-07T23:54:56.589Z,121.23
2019-04-07T23:57:27.500Z,132.17
2019-04-07T23:59:57.170Z,127.22
